createdAt,value
2022-07-31T00:00:32.706Z,53
2022-07-31T00:01:32.696Z,53
2022-07-31T00:02:32.674Z,53
2022-07-31T00:03:32.788Z,53
2022-07-31T00:04:32.633Z,53
2022-07-31T00:05:32.681Z,53
2022-07-31T00:06:32.594Z,53
2022-07-31T00:07:32.637Z,53
2022-07-31T00:08:32.616Z,53
2022-07-31T00:09:53.140Z,53
2022-07-31T00:10:32.653Z,53
2022-07-31T00:11:32.649Z,53
2022-07-31T00:12:32.695Z,53
2022-07-31T00:13:58.152Z,53
2022-07-31T00:14:32.700Z,53
2022-07-31T00:15:32.617Z,53
2022-07-31T00:16:32.632Z,53
2022-07-31T00:17:32.609Z,53
2022-07-31T00:18:33.157Z,53
2022-07-31T00:19:32.634Z,53
2022-07-31T00:20:32.637Z,53
2022-07-31T00:21:32.616Z,53
2022-07-31T00:22:32.644Z,53
2022-07-31T00:23:32.611Z,53
2022-07-31T00:24:32.629Z,53
2022-07-31T00:25:32.650Z,53
2022-07-31T00:26:32.631Z,53
2022-07-31T00:27:32.668Z,53
2022-07-31T00:28:32.628Z,53
2022-07-31T00:29:32.614Z,53
2022-07-31T00:30:32.710Z,53
2022-07-31T00:31:32.636Z,53
2022-07-31T00:32:32.640Z,53
2022-07-31T00:33:32.710Z,52
2022-07-31T00:34:32.618Z,53
2022-07-31T00:35:32.599Z,53
2022-07-31T00:36:32.664Z,53
2022-07-31T00:37:32.644Z,53
2022-07-31T00:38:32.620Z,52
2022-07-31T00:39:32.683Z,53
2022-07-31T00:40:32.799Z,53
2022-07-31T00:41:32.688Z,53
2022-07-31T00:42:32.648Z,53
2022-07-31T00:43:32.617Z,53
2022-07-31T00:44:32.625Z,53
2022-07-31T00:45:32.631Z,53
2022-07-31T00:46:32.621Z,53
2022-07-31T00:47:32.619Z,53
2022-07-31T00:48:32.690Z,53
2022-07-31T00:49:37.901Z,53
2022-07-31T00:50:32.727Z,53
2022-07-31T00:51:32.627Z,53
2022-07-31T00:52:32.650Z,54
2022-07-31T00:53:32.662Z,53
2022-07-31T00:54:32.606Z,54
2022-07-31T00:55:32.589Z,53
2022-07-31T00:56:32.701Z,53
2022-07-31T00:57:32.621Z,53
2022-07-31T00:58:32.647Z,54
2022-07-31T00:59:32.619Z,54
2022-07-31T01:00:32.624Z,54
2022-07-31T01:01:32.746Z,54
2022-07-31T01:02:32.665Z,54
2022-07-31T01:03:32.643Z,54
2022-07-31T01:04:32.617Z,54
2022-07-31T01:05:32.652Z,54
2022-07-31T01:06:32.659Z,54
2022-07-31T01:07:32.627Z,54
2022-07-31T01:08:32.653Z,54
2022-07-31T01:09:32.660Z,54
2022-07-31T01:10:32.639Z,54
2022-07-31T01:11:32.615Z,54
2022-07-31T01:12:32.625Z,54
2022-07-31T01:13:32.712Z,54
2022-07-31T01:14:32.679Z,54
2022-07-31T01:15:32.611Z,54
2022-07-31T01:16:32.621Z,54
2022-07-31T01:17:32.627Z,54
2022-07-31T01:18:33.222Z,54
2022-07-31T01:19:37.990Z,54
2022-07-31T01:20:32.672Z,55
2022-07-31T01:21:32.626Z,55
2022-07-31T01:22:34.896Z,55
2022-07-31T01:23:32.795Z,55
2022-07-31T01:24:32.667Z,55
2022-07-31T01:25:32.631Z,55
2022-07-31T01:26:32.625Z,55
2022-07-31T01:27:32.633Z,55
2022-07-31T01:28:32.666Z,55
2022-07-31T01:29:32.624Z,55
2022-07-31T01:30:32.643Z,55
2022-07-31T01:31:32.618Z,55
2022-07-31T01:32:32.691Z,55
2022-07-31T01:33:32.612Z,55
2022-07-31T01:34:32.637Z,55
2022-07-31T01:35:32.643Z,55
2022-07-31T01:36:32.616Z,55
2022-07-31T01:37:32.628Z,55
2022-07-31T01:38:32.631Z,55
2022-07-31T01:39:33.881Z,55
2022-07-31T01:40:32.771Z,55
2022-07-31T01:41:32.784Z,55
2022-07-31T01:42:32.854Z,55
2022-07-31T01:43:32.738Z,55
2022-07-31T01:44:32.713Z,56
2022-07-31T01:45:32.704Z,56
2022-07-31T01:46:37.505Z,56
2022-07-31T01:47:32.705Z,56
2022-07-31T01:48:32.618Z,56
2022-07-31T01:49:32.698Z,56
2022-07-31T01:50:43.822Z,57
2022-07-31T01:51:32.623Z,57
2022-07-31T01:52:32.594Z,57
2022-07-31T01:53:32.787Z,57
2022-07-31T01:54:32.634Z,58
2022-07-31T01:56:02.563Z,58
2022-07-31T01:56:32.689Z,58
2022-07-31T01:57:32.616Z,57
2022-07-31T01:58:32.644Z,58
2022-07-31T01:59:32.590Z,57
2022-07-31T02:00:34.197Z,57
2022-07-31T02:01:32.673Z,58
2022-07-31T02:02:32.648Z,58
2022-07-31T02:03:43.344Z,58
2022-07-31T02:04:32.636Z,58
2022-07-31T02:05:32.635Z,58
2022-07-31T02:06:32.617Z,58
2022-07-31T02:07:32.614Z,59
2022-07-31T02:08:32.607Z,59
2022-07-31T02:09:32.617Z,58
2022-07-31T02:10:32.575Z,59
2022-07-31T02:11:32.629Z,58
2022-07-31T02:12:33.412Z,58
2022-07-31T02:13:32.619Z,58
2022-07-31T02:14:32.641Z,59
2022-07-31T02:15:32.638Z,58
2022-07-31T02:16:32.621Z,59
2022-07-31T02:17:32.704Z,58
2022-07-31T02:18:32.586Z,58
2022-07-31T02:19:32.703Z,58
2022-07-31T02:20:32.622Z,58
2022-07-31T02:21:32.618Z,58
2022-07-31T02:22:32.599Z,59
2022-07-31T02:23:32.630Z,58
2022-07-31T02:24:32.704Z,58
2022-07-31T02:25:32.643Z,59
2022-07-31T02:26:32.855Z,59
2022-07-31T02:27:57.609Z,59
2022-07-31T02:28:32.817Z,59
2022-07-31T02:29:32.628Z,59
2022-07-31T02:30:38.334Z,59
2022-07-31T02:31:32.613Z,59
2022-07-31T02:32:32.628Z,59
2022-07-31T02:33:32.616Z,59
2022-07-31T02:34:32.625Z,59
2022-07-31T02:35:32.705Z,59
2022-07-31T02:36:32.667Z,59
2022-07-31T02:37:32.744Z,59
2022-07-31T02:38:32.621Z,59
2022-07-31T02:39:32.683Z,59
2022-07-31T02:40:32.717Z,59
2022-07-31T02:41:32.646Z,60
2022-07-31T02:42:32.647Z,60
2022-07-31T02:43:32.674Z,60
2022-07-31T02:44:32.582Z,60
2022-07-31T02:45:32.627Z,60
2022-07-31T02:46:32.619Z,60
2022-07-31T02:47:32.626Z,60
2022-07-31T02:48:32.683Z,60
2022-07-31T02:49:32.622Z,61
2022-07-31T02:50:32.634Z,60
2022-07-31T02:51:42.835Z,61
2022-07-31T02:52:32.598Z,61
2022-07-31T02:53:32.681Z,60
2022-07-31T02:54:32.740Z,61
2022-07-31T02:55:32.622Z,61
2022-07-31T02:56:32.604Z,61
2022-07-31T02:57:32.634Z,60
2022-07-31T02:58:32.698Z,60
2022-07-31T02:59:32.612Z,60
2022-07-31T03:00:32.668Z,60
2022-07-31T03:01:32.643Z,60
2022-07-31T03:02:34.639Z,61
2022-07-31T03:03:32.651Z,61
2022-07-31T03:04:32.782Z,61
2022-07-31T03:05:32.665Z,61
2022-07-31T03:06:32.614Z,61
2022-07-31T03:07:32.603Z,61
2022-07-31T03:08:32.622Z,61
2022-07-31T03:09:32.599Z,61
2022-07-31T03:10:32.687Z,61
2022-07-31T03:11:32.678Z,61
2022-07-31T03:12:32.941Z,61
2022-07-31T03:13:32.728Z,62
2022-07-31T03:14:33.085Z,61
2022-07-31T03:15:32.703Z,61
2022-07-31T03:16:32.765Z,61
2022-07-31T03:17:38.307Z,61
2022-07-31T03:18:33.519Z,61
2022-07-31T03:19:32.801Z,61
2022-07-31T03:20:32.745Z,61
2022-07-31T03:21:32.785Z,61
2022-07-31T03:22:32.654Z,61
2022-07-31T03:23:32.761Z,61
2022-07-31T03:24:32.688Z,61
2022-07-31T03:25:32.883Z,62
2022-07-31T03:26:32.660Z,61
2022-07-31T03:27:32.785Z,61
2022-07-31T03:28:32.730Z,62
2022-07-31T03:29:41.567Z,62
2022-07-31T03:30:32.653Z,62
2022-07-31T03:31:32.661Z,62
2022-07-31T03:32:32.598Z,62
2022-07-31T03:33:32.615Z,62
2022-07-31T03:34:32.620Z,62
2022-07-31T03:35:32.613Z,62
2022-07-31T03:36:32.653Z,62
2022-07-31T03:37:32.613Z,62
2022-07-31T03:38:42.372Z,62
2022-07-31T03:39:32.602Z,62
2022-07-31T03:40:32.606Z,62
2022-07-31T03:41:32.720Z,63
2022-07-31T03:42:32.696Z,63
2022-07-31T03:43:43.666Z,63
2022-07-31T03:44:32.671Z,63
2022-07-31T03:45:32.604Z,63
2022-07-31T03:46:32.581Z,63
2022-07-31T03:47:32.600Z,63
2022-07-31T03:48:33.188Z,63
2022-07-31T03:49:32.704Z,63
2022-07-31T03:50:32.602Z,63
2022-07-31T03:51:32.607Z,63
2022-07-31T03:52:32.741Z,63
2022-07-31T03:53:32.603Z,63
2022-07-31T03:54:32.617Z,63
2022-07-31T03:55:32.586Z,63
2022-07-31T03:56:32.627Z,63
2022-07-31T03:57:34.287Z,63
2022-07-31T03:58:32.627Z,63
2022-07-31T03:59:40.454Z,63
2022-07-31T04:00:32.615Z,63
2022-07-31T04:01:57.568Z,63
2022-07-31T04:02:32.750Z,63
2022-07-31T04:03:32.705Z,63
2022-07-31T04:04:32.647Z,63
2022-07-31T04:05:32.610Z,63
2022-07-31T04:06:32.633Z,63
2022-07-31T04:07:32.580Z,63
2022-07-31T04:08:32.608Z,63
2022-07-31T04:09:32.619Z,63
2022-07-31T04:10:32.637Z,63
2022-07-31T04:11:32.599Z,63
2022-07-31T04:12:32.602Z,63
2022-07-31T04:13:32.609Z,63
2022-07-31T04:14:32.702Z,63
2022-07-31T04:15:32.602Z,63
2022-07-31T04:16:32.594Z,63
2022-07-31T04:17:32.605Z,63
2022-07-31T04:18:32.586Z,63
2022-07-31T04:19:32.614Z,63
2022-07-31T04:20:32.723Z,63
2022-07-31T04:21:32.659Z,63
2022-07-31T04:22:32.604Z,63
2022-07-31T04:23:32.887Z,63
2022-07-31T04:24:32.641Z,63
2022-07-31T04:25:32.616Z,63
2022-07-31T04:26:32.618Z,63
2022-07-31T04:27:32.721Z,63
2022-07-31T04:28:32.629Z,63
2022-07-31T04:29:32.621Z,63
2022-07-31T04:30:32.614Z,63
2022-07-31T04:31:32.583Z,63
2022-07-31T04:32:32.587Z,63
2022-07-31T04:33:32.670Z,63
2022-07-31T04:34:32.586Z,63
2022-07-31T04:35:32.612Z,63
2022-07-31T04:36:32.597Z,63
2022-07-31T04:37:32.635Z,63
2022-07-31T04:38:32.836Z,63
2022-07-31T04:39:32.595Z,63
2022-07-31T04:40:32.591Z,63
2022-07-31T04:41:32.592Z,63
2022-07-31T04:42:32.958Z,63
2022-07-31T04:43:32.601Z,62
2022-07-31T04:44:32.594Z,62
2022-07-31T04:45:32.639Z,62
2022-07-31T04:46:32.572Z,62
2022-07-31T04:47:32.598Z,62
2022-07-31T04:48:32.619Z,62
2022-07-31T04:49:32.891Z,62
2022-07-31T04:50:32.926Z,62
2022-07-31T04:51:32.645Z,62
2022-07-31T04:52:32.618Z,62
2022-07-31T04:53:32.632Z,62
2022-07-31T04:54:32.611Z,62
2022-07-31T04:55:32.632Z,62
2022-07-31T04:56:32.620Z,62
2022-07-31T04:57:32.664Z,62
2022-07-31T04:58:32.585Z,62
2022-07-31T04:59:59.849Z,62
2022-07-31T05:00:32.803Z,62
2022-07-31T05:01:32.690Z,62
2022-07-31T05:02:32.763Z,62
2022-07-31T05:03:32.607Z,61
2022-07-31T05:04:32.634Z,61
2022-07-31T05:05:32.590Z,61
2022-07-31T05:06:32.610Z,61
2022-07-31T05:07:32.648Z,61
2022-07-31T05:08:33.029Z,61
2022-07-31T05:09:32.630Z,61
2022-07-31T05:10:32.643Z,61
2022-07-31T05:11:32.629Z,61
2022-07-31T05:12:32.744Z,61
2022-07-31T05:13:32.624Z,61
2022-07-31T05:14:32.630Z,61
2022-07-31T05:15:32.602Z,61
2022-07-31T05:16:32.589Z,60
2022-07-31T05:17:32.601Z,61
2022-07-31T05:18:32.585Z,61
2022-07-31T05:19:32.610Z,61
2022-07-31T05:20:32.582Z,60
2022-07-31T05:21:32.647Z,60
2022-07-31T05:22:32.601Z,60
2022-07-31T05:23:32.592Z,60
2022-07-31T05:24:33.902Z,60
2022-07-31T05:25:32.605Z,60
2022-07-31T05:26:32.601Z,60
2022-07-31T05:27:32.687Z,60
2022-07-31T05:28:32.718Z,59
2022-07-31T05:29:32.623Z,59
2022-07-31T05:30:32.584Z,59
2022-07-31T05:31:32.583Z,58
2022-07-31T05:32:32.589Z,57
2022-07-31T05:33:32.670Z,56
2022-07-31T05:34:32.593Z,56
2022-07-31T05:35:32.591Z,56
2022-07-31T05:36:32.591Z,56
2022-07-31T05:37:32.674Z,55
2022-07-31T05:38:32.932Z,55
2022-07-31T05:39:32.603Z,55
2022-07-31T05:40:32.606Z,54
2022-07-31T05:41:32.667Z,53
2022-07-31T05:42:32.637Z,52
2022-07-31T05:43:32.590Z,52
2022-07-31T05:44:32.733Z,52
2022-07-31T05:45:32.611Z,53
2022-07-31T05:46:32.586Z,53
2022-07-31T05:47:40.919Z,52
2022-07-31T05:48:32.928Z,51
2022-07-31T05:49:32.667Z,50
2022-07-31T05:50:32.602Z,51
2022-07-31T05:51:32.675Z,51
2022-07-31T05:52:32.585Z,50
2022-07-31T05:53:32.592Z,51
2022-07-31T05:54:32.597Z,51
2022-07-31T05:55:32.658Z,51
2022-07-31T05:56:32.557Z,51
2022-07-31T05:57:33.781Z,51
2022-07-31T05:58:32.685Z,51
2022-07-31T05:59:32.570Z,50
2022-07-31T06:00:32.692Z,49
2022-07-31T06:01:32.757Z,49
2022-07-31T06:02:32.601Z,50
2022-07-31T06:03:36.942Z,49
2022-07-31T06:04:32.670Z,49
2022-07-31T06:05:32.615Z,49
2022-07-31T06:06:32.596Z,49
2022-07-31T06:07:32.584Z,50
2022-07-31T06:08:33.636Z,50
2022-07-31T06:09:32.572Z,50
2022-07-31T06:10:32.608Z,51
2022-07-31T06:11:32.597Z,51
2022-07-31T06:12:32.659Z,50
2022-07-31T06:13:32.595Z,50
2022-07-31T06:14:32.580Z,50
2022-07-31T06:15:36.254Z,50
2022-07-31T06:16:32.577Z,50
2022-07-31T06:17:44.144Z,50
2022-07-31T06:18:33.140Z,49
2022-07-31T06:19:32.592Z,49
2022-07-31T06:20:32.619Z,50
2022-07-31T06:21:32.880Z,51
2022-07-31T06:22:32.693Z,49
2022-07-31T06:23:32.737Z,49
2022-07-31T06:24:33.679Z,49
2022-07-31T06:25:38.808Z,49
2022-07-31T06:26:32.625Z,50
2022-07-31T06:27:33.458Z,51
2022-07-31T06:28:47.745Z,51
2022-07-31T06:29:41.295Z,51
2022-07-31T06:30:32.609Z,50
2022-07-31T06:31:32.597Z,49
2022-07-31T06:32:32.591Z,51
2022-07-31T06:33:37.888Z,50
2022-07-31T06:34:32.587Z,51
2022-07-31T06:35:32.627Z,51
2022-07-31T06:36:32.566Z,51
2022-07-31T06:37:32.619Z,51
2022-07-31T06:38:32.851Z,51
2022-07-31T06:39:54.419Z,51
2022-07-31T06:40:32.644Z,51
2022-07-31T06:41:32.588Z,51
2022-07-31T06:42:32.658Z,51
2022-07-31T06:43:32.573Z,51
2022-07-31T06:44:32.633Z,52
2022-07-31T06:45:50.920Z,52
2022-07-31T06:46:32.965Z,53
2022-07-31T06:47:32.603Z,53
2022-07-31T06:48:32.775Z,52
2022-07-31T06:49:32.668Z,52
2022-07-31T06:50:32.607Z,52
2022-07-31T06:51:32.743Z,52
2022-07-31T06:52:32.585Z,53
2022-07-31T06:53:32.596Z,53
2022-07-31T06:54:32.585Z,52
2022-07-31T06:55:32.598Z,52
2022-07-31T06:56:32.629Z,53
2022-07-31T06:57:32.573Z,53
2022-07-31T06:58:32.613Z,53
2022-07-31T06:59:39.353Z,53
2022-07-31T07:00:32.675Z,52
2022-07-31T07:01:32.855Z,52
2022-07-31T07:02:32.583Z,52
2022-07-31T07:03:32.593Z,53
2022-07-31T07:05:04.491Z,52
2022-07-31T07:05:32.666Z,52
2022-07-31T07:06:32.590Z,52
2022-07-31T07:07:32.630Z,52
2022-07-31T07:08:32.590Z,53
2022-07-31T07:09:32.577Z,52
2022-07-31T07:10:33.091Z,51
2022-07-31T07:11:32.579Z,51
2022-07-31T07:12:32.864Z,51
2022-07-31T07:13:45.777Z,50
2022-07-31T07:14:32.591Z,50
2022-07-31T07:15:32.609Z,50
2022-07-31T07:16:32.575Z,50
2022-07-31T07:17:32.582Z,51
2022-07-31T07:18:32.947Z,50
2022-07-31T07:19:32.583Z,49
2022-07-31T07:20:32.618Z,49
2022-07-31T07:21:32.581Z,49
2022-07-31T07:22:32.827Z,49
2022-07-31T07:23:32.631Z,47
2022-07-31T07:24:32.574Z,47
2022-07-31T07:25:32.587Z,48
2022-07-31T07:26:32.567Z,48
2022-07-31T07:27:32.695Z,48
2022-07-31T07:28:33.005Z,49
2022-07-31T07:29:32.597Z,48
2022-07-31T07:30:32.592Z,47
2022-07-31T07:31:32.585Z,47
2022-07-31T07:32:32.595Z,47
2022-07-31T07:33:41.856Z,47
2022-07-31T07:34:32.613Z,48
2022-07-31T07:35:34.218Z,46
2022-07-31T07:36:32.626Z,46
2022-07-31T07:37:32.607Z,46
2022-07-31T07:38:33.045Z,46
2022-07-31T07:39:32.998Z,46
2022-07-31T07:40:32.595Z,46
2022-07-31T07:41:32.590Z,46
2022-07-31T07:42:32.749Z,46
2022-07-31T07:43:32.579Z,47
2022-07-31T07:44:32.579Z,47
2022-07-31T07:45:32.593Z,47
2022-07-31T07:46:32.593Z,47
2022-07-31T07:47:53.609Z,47
2022-07-31T07:48:33.601Z,46
2022-07-31T07:49:32.807Z,46
2022-07-31T07:50:32.586Z,46
2022-07-31T07:51:32.582Z,45
2022-07-31T07:52:32.569Z,44
2022-07-31T07:53:32.578Z,45
2022-07-31T07:54:32.572Z,44
2022-07-31T07:55:37.187Z,44
2022-07-31T07:56:32.603Z,44
2022-07-31T07:57:32.653Z,44
2022-07-31T07:58:32.777Z,44
2022-07-31T07:59:32.560Z,44
2022-07-31T08:00:32.587Z,45
2022-07-31T08:01:32.678Z,45
2022-07-31T08:02:32.593Z,45
2022-07-31T08:03:49.598Z,46
2022-07-31T08:04:32.636Z,46
2022-07-31T08:05:32.618Z,45
2022-07-31T08:06:32.574Z,45
2022-07-31T08:07:42.099Z,45
2022-07-31T08:08:32.588Z,45
2022-07-31T08:09:32.590Z,45
2022-07-31T08:10:32.573Z,45
2022-07-31T08:11:32.599Z,45
2022-07-31T08:12:32.614Z,44
2022-07-31T08:13:33.168Z,45
2022-07-31T08:14:32.613Z,45
2022-07-31T08:15:32.581Z,45
2022-07-31T08:16:32.574Z,44
2022-07-31T08:17:32.575Z,45
2022-07-31T08:18:32.606Z,44
2022-07-31T08:19:32.573Z,44
2022-07-31T08:20:32.646Z,44
2022-07-31T08:21:32.638Z,43
2022-07-31T08:22:32.584Z,44
2022-07-31T08:23:32.705Z,44
2022-07-31T08:24:32.549Z,44
2022-07-31T08:25:32.575Z,43
2022-07-31T08:26:32.565Z,43
2022-07-31T08:27:39.863Z,43
2022-07-31T08:28:33.243Z,43
2022-07-31T08:29:32.696Z,42
2022-07-31T08:30:32.565Z,42
2022-07-31T08:31:32.567Z,42
2022-07-31T08:32:32.601Z,42
2022-07-31T08:33:32.628Z,42
2022-07-31T08:34:32.579Z,43
2022-07-31T08:35:32.631Z,42
2022-07-31T08:36:32.571Z,42
2022-07-31T08:37:51.012Z,42
2022-07-31T08:38:32.744Z,42
2022-07-31T08:39:32.578Z,41
2022-07-31T08:40:34.950Z,41
2022-07-31T08:41:32.594Z,41
2022-07-31T08:42:32.623Z,41
2022-07-31T08:44:00.661Z,41
2022-07-31T08:44:32.653Z,40
2022-07-31T08:45:32.574Z,38
2022-07-31T08:46:32.574Z,37
2022-07-31T08:47:32.587Z,38
2022-07-31T08:48:32.599Z,38
2022-07-31T08:49:32.662Z,37
2022-07-31T08:50:32.633Z,36
2022-07-31T08:51:32.593Z,35
2022-07-31T08:52:32.618Z,34
2022-07-31T08:53:32.582Z,33
2022-07-31T08:54:33.016Z,33
2022-07-31T08:55:55.060Z,32
2022-07-31T08:56:32.641Z,33
2022-07-31T08:57:32.558Z,32
2022-07-31T08:58:37.242Z,33
2022-07-31T08:59:32.589Z,31
2022-07-31T09:00:32.562Z,31
2022-07-31T09:01:32.641Z,31
2022-07-31T09:02:32.568Z,32
2022-07-31T09:03:32.591Z,33
2022-07-31T09:04:32.592Z,31
2022-07-31T09:05:42.492Z,31
2022-07-31T09:06:32.563Z,33
2022-07-31T09:07:32.549Z,32
2022-07-31T09:08:32.552Z,35
2022-07-31T09:09:51.253Z,36
2022-07-31T09:10:32.635Z,37
2022-07-31T09:11:32.579Z,36
2022-07-31T09:12:33.894Z,36
2022-07-31T09:13:32.589Z,36
2022-07-31T09:14:32.575Z,35
2022-07-31T09:15:32.717Z,34
2022-07-31T09:16:32.597Z,35
2022-07-31T09:17:32.577Z,35
2022-07-31T09:18:32.565Z,35
2022-07-31T09:19:52.689Z,35
2022-07-31T09:20:32.625Z,35
2022-07-31T09:21:32.597Z,36
2022-07-31T09:22:32.591Z,36
2022-07-31T09:23:32.560Z,36
2022-07-31T09:24:32.727Z,36
2022-07-31T09:25:32.569Z,36
2022-07-31T09:26:32.645Z,36
2022-07-31T09:27:32.586Z,36
2022-07-31T09:28:32.561Z,36
2022-07-31T09:29:32.568Z,36
2022-07-31T09:30:32.642Z,36
2022-07-31T09:31:32.657Z,37
2022-07-31T09:32:32.585Z,37
2022-07-31T09:33:32.587Z,38
2022-07-31T09:34:32.674Z,38
2022-07-31T09:35:32.594Z,38
2022-07-31T09:36:32.604Z,37
2022-07-31T09:37:32.611Z,37
2022-07-31T09:38:32.601Z,37
2022-07-31T09:39:32.606Z,37
2022-07-31T09:40:32.596Z,36
2022-07-31T09:42:00.086Z,36
2022-07-31T09:42:33.157Z,35
2022-07-31T09:43:32.627Z,36
2022-07-31T09:44:32.621Z,36
2022-07-31T09:45:32.597Z,35
2022-07-31T09:46:32.568Z,36
2022-07-31T09:47:32.579Z,36
2022-07-31T09:48:32.917Z,37
2022-07-31T09:49:33.361Z,37
2022-07-31T09:50:32.750Z,37
2022-07-31T09:51:32.591Z,37
2022-07-31T09:52:32.615Z,37
2022-07-31T09:53:32.581Z,37
2022-07-31T09:54:32.616Z,37
2022-07-31T09:55:32.602Z,36
2022-07-31T09:56:32.555Z,36
2022-07-31T09:57:32.576Z,35
2022-07-31T09:58:32.567Z,35
2022-07-31T09:59:32.561Z,36
2022-07-31T10:00:32.717Z,35
2022-07-31T10:01:32.654Z,35
2022-07-31T10:02:32.610Z,35
2022-07-31T10:03:32.576Z,35
2022-07-31T10:04:32.590Z,35
2022-07-31T10:05:32.556Z,35
2022-07-31T10:06:32.546Z,35
2022-07-31T10:07:33.004Z,36
2022-07-31T10:08:32.584Z,35
2022-07-31T10:09:32.567Z,35
2022-07-31T10:10:32.809Z,36
2022-07-31T10:11:32.567Z,36
2022-07-31T10:12:32.597Z,35
2022-07-31T10:13:32.549Z,35
2022-07-31T10:14:32.569Z,34
2022-07-31T10:15:32.553Z,35
2022-07-31T10:16:32.598Z,34
2022-07-31T10:17:35.971Z,34
2022-07-31T10:18:36.024Z,35
2022-07-31T10:19:32.573Z,35
2022-07-31T10:20:33.617Z,35
2022-07-31T10:21:40.867Z,35
2022-07-31T10:22:44.920Z,36
2022-07-31T10:23:48.956Z,35
2022-07-31T10:24:52.901Z,35
2022-07-31T10:25:56.881Z,36
2022-07-31T10:27:01.874Z,36
2022-07-31T10:28:04.964Z,35
2022-07-31T10:29:08.868Z,34
2022-07-31T10:30:13.740Z,34
2022-07-31T10:31:16.871Z,33
2022-07-31T10:32:20.885Z,33
2022-07-31T10:33:42.558Z,34
2022-07-31T10:34:28.904Z,34
2022-07-31T10:35:32.584Z,35
2022-07-31T10:36:32.577Z,35
2022-07-31T10:37:32.578Z,35
2022-07-31T10:38:37.939Z,35
2022-07-31T10:39:32.583Z,34
2022-07-31T10:40:32.583Z,35
2022-07-31T10:41:32.554Z,33
2022-07-31T10:42:32.560Z,33
2022-07-31T10:43:32.555Z,33
2022-07-31T10:44:35.472Z,34
2022-07-31T10:45:32.557Z,33
2022-07-31T10:46:32.552Z,34
2022-07-31T10:47:32.539Z,34
2022-07-31T10:48:32.585Z,35
2022-07-31T10:49:32.629Z,33
2022-07-31T10:50:32.625Z,32
2022-07-31T10:51:32.607Z,32
2022-07-31T10:52:32.562Z,32
2022-07-31T10:53:50.082Z,32
2022-07-31T10:54:32.617Z,32
2022-07-31T10:55:32.545Z,32
2022-07-31T10:56:32.587Z,32
2022-07-31T10:57:32.560Z,32
2022-07-31T10:58:32.559Z,33
2022-07-31T10:59:32.584Z,32
2022-07-31T11:00:32.577Z,32
2022-07-31T11:01:33.089Z,32
2022-07-31T11:02:32.596Z,33
2022-07-31T11:03:32.562Z,33
2022-07-31T11:04:32.553Z,33
2022-07-31T11:05:32.660Z,34
2022-07-31T11:06:32.601Z,33
2022-07-31T11:07:32.557Z,33
2022-07-31T11:08:32.649Z,33
2022-07-31T11:09:32.589Z,34
2022-07-31T11:10:32.553Z,34
2022-07-31T11:11:32.599Z,34
2022-07-31T11:12:32.571Z,33
2022-07-31T11:13:33.594Z,33
2022-07-31T11:14:32.553Z,32
2022-07-31T11:15:32.611Z,33
2022-07-31T11:16:32.554Z,32
2022-07-31T11:18:23.221Z,32
2022-07-31T11:18:34.560Z,32
2022-07-31T11:19:32.587Z,32
2022-07-31T11:20:32.547Z,33
2022-07-31T11:21:38.167Z,32
2022-07-31T11:22:33.176Z,33
2022-07-31T11:23:32.563Z,33
2022-07-31T11:24:32.605Z,33
2022-07-31T11:25:32.543Z,32
2022-07-31T11:26:40.963Z,31
2022-07-31T11:27:32.592Z,31
2022-07-31T11:28:32.568Z,31
2022-07-31T11:30:01.611Z,31
2022-07-31T11:30:32.652Z,31
2022-07-31T11:31:32.597Z,32
2022-07-31T11:32:32.546Z,31
2022-07-31T11:33:41.643Z,31
2022-07-31T11:34:32.586Z,31
2022-07-31T11:35:32.575Z,31
2022-07-31T11:36:32.545Z,31
2022-07-31T11:37:46.361Z,31
2022-07-31T11:38:32.641Z,30
2022-07-31T11:39:37.093Z,30
2022-07-31T11:40:32.536Z,31
2022-07-31T11:41:41.069Z,31
2022-07-31T11:42:36.149Z,29
2022-07-31T11:43:32.553Z,30
2022-07-31T11:44:32.537Z,30
2022-07-31T11:45:33.661Z,29
2022-07-31T11:46:32.647Z,29
2022-07-31T11:48:10.896Z,28
2022-07-31T11:48:39.020Z,28
2022-07-31T11:49:47.942Z,28
2022-07-31T11:50:32.623Z,28
2022-07-31T11:51:32.578Z,28
2022-07-31T11:52:36.939Z,29
2022-07-31T11:53:32.560Z,28
2022-07-31T11:54:32.564Z,28
2022-07-31T11:55:32.573Z,28
2022-07-31T11:56:32.566Z,28
2022-07-31T11:57:51.774Z,27
2022-07-31T11:58:32.928Z,27
2022-07-31T11:59:45.545Z,28
2022-07-31T12:00:32.600Z,27
2022-07-31T12:01:32.598Z,27
2022-07-31T12:02:32.660Z,27
2022-07-31T12:03:32.662Z,27
2022-07-31T12:04:32.604Z,27
2022-07-31T12:05:37.734Z,27
2022-07-31T12:06:34.834Z,27
2022-07-31T12:07:32.548Z,27
2022-07-31T12:08:33.224Z,27
2022-07-31T12:10:01.124Z,27
2022-07-31T12:10:32.586Z,27
2022-07-31T12:11:32.570Z,26
2022-07-31T12:12:32.550Z,26
2022-07-31T12:13:32.614Z,26
2022-07-31T12:14:32.618Z,26
2022-07-31T12:15:32.557Z,27
2022-07-31T12:16:32.575Z,26
2022-07-31T12:17:32.536Z,26
2022-07-31T12:18:32.618Z,25
2022-07-31T12:19:37.496Z,25
2022-07-31T12:20:35.893Z,25
2022-07-31T12:21:32.566Z,25
2022-07-31T12:22:32.650Z,25
2022-07-31T12:23:40.819Z,25
2022-07-31T12:24:32.553Z,25
2022-07-31T12:25:32.529Z,26
2022-07-31T12:26:32.694Z,25
2022-07-31T12:27:32.554Z,26
2022-07-31T12:28:32.547Z,25
2022-07-31T12:29:32.625Z,24
2022-07-31T12:30:32.649Z,24
2022-07-31T12:31:32.565Z,24
2022-07-31T12:32:32.552Z,24
2022-07-31T12:33:32.535Z,24
2022-07-31T12:34:32.569Z,24
2022-07-31T12:35:54.508Z,24
2022-07-31T12:36:32.685Z,25
2022-07-31T12:37:32.552Z,24
2022-07-31T12:38:40.900Z,24
2022-07-31T12:39:53.769Z,24
2022-07-31T12:40:32.754Z,24
2022-07-31T12:41:32.552Z,24
2022-07-31T12:42:35.315Z,24
2022-07-31T12:43:32.562Z,24
2022-07-31T12:44:32.568Z,24
2022-07-31T12:45:32.543Z,24
2022-07-31T12:46:33.388Z,23
2022-07-31T12:47:32.549Z,24
2022-07-31T12:48:36.615Z,24
2022-07-31T12:49:32.614Z,24
2022-07-31T12:50:32.545Z,24
2022-07-31T12:51:44.807Z,24
2022-07-31T12:52:32.538Z,23
2022-07-31T12:53:32.604Z,24
2022-07-31T12:54:34.550Z,23
2022-07-31T12:55:32.551Z,23
2022-07-31T12:56:32.528Z,23
2022-07-31T12:57:32.527Z,23
2022-07-31T12:58:32.525Z,24
2022-07-31T12:59:32.538Z,24
2022-07-31T13:00:35.757Z,24
2022-07-31T13:01:32.624Z,24
2022-07-31T13:02:32.605Z,25
2022-07-31T13:03:46.018Z,24
2022-07-31T13:04:32.746Z,24
2022-07-31T13:05:32.588Z,25
2022-07-31T13:06:32.553Z,24
2022-07-31T13:07:32.552Z,24
2022-07-31T13:08:32.914Z,24
2022-07-31T13:09:32.546Z,24
2022-07-31T13:10:32.699Z,24
2022-07-31T13:11:46.696Z,24
2022-07-31T13:12:32.593Z,24
2022-07-31T13:13:32.542Z,24
2022-07-31T13:14:32.541Z,23
2022-07-31T13:15:32.531Z,24
2022-07-31T13:16:32.659Z,24
2022-07-31T13:17:32.578Z,23
2022-07-31T13:18:32.554Z,23
2022-07-31T13:19:32.827Z,22
2022-07-31T13:20:32.575Z,23
2022-07-31T13:21:48.391Z,23
2022-07-31T13:22:33.676Z,23
2022-07-31T13:23:32.615Z,23
2022-07-31T13:24:32.541Z,24
2022-07-31T13:25:32.548Z,24
2022-07-31T13:26:32.602Z,24
2022-07-31T13:27:32.722Z,24
2022-07-31T13:28:33.748Z,24
2022-07-31T13:29:40.559Z,25
2022-07-31T13:30:44.592Z,24
2022-07-31T13:31:48.543Z,24
2022-07-31T13:32:52.591Z,25
2022-07-31T13:33:56.548Z,25
2022-07-31T13:35:19.626Z,25
2022-07-31T13:36:04.615Z,25
2022-07-31T13:37:08.577Z,25
2022-07-31T13:38:12.800Z,25
2022-07-31T13:39:16.696Z,26
2022-07-31T13:40:20.574Z,26
2022-07-31T13:41:24.569Z,26
2022-07-31T13:42:29.774Z,26
2022-07-31T13:43:32.557Z,26
2022-07-31T13:44:32.578Z,27
2022-07-31T13:45:32.513Z,28
2022-07-31T13:46:32.536Z,28
2022-07-31T13:47:50.416Z,28
2022-07-31T13:48:32.932Z,28
2022-07-31T13:49:32.694Z,28
2022-07-31T13:50:32.552Z,27
2022-07-31T13:51:32.568Z,27
2022-07-31T13:52:32.542Z,28
2022-07-31T13:53:32.530Z,27
2022-07-31T13:54:32.621Z,26
2022-07-31T13:55:32.588Z,26
2022-07-31T13:56:38.733Z,26
2022-07-31T13:57:32.578Z,26
2022-07-31T13:58:32.536Z,26
2022-07-31T13:59:32.529Z,25
2022-07-31T14:00:32.554Z,25
2022-07-31T14:02:04.134Z,26
2022-07-31T14:02:32.702Z,26
2022-07-31T14:03:32.553Z,26
2022-07-31T14:04:38.708Z,26
2022-07-31T14:05:37.333Z,26
2022-07-31T14:06:32.639Z,26
2022-07-31T14:07:48.300Z,27
2022-07-31T14:08:50.303Z,27
2022-07-31T14:09:32.634Z,27
2022-07-31T14:10:32.553Z,27
2022-07-31T14:11:32.557Z,27
2022-07-31T14:12:32.539Z,27
2022-07-31T14:13:32.543Z,27
2022-07-31T14:14:32.588Z,27
2022-07-31T14:15:32.543Z,27
2022-07-31T14:16:32.547Z,27
2022-07-31T14:17:32.619Z,27